sensor_id;sensor_type;location;lat;lon;timestamp;pressure;altitude;pressure_sealevel;temperature;humidity
22688;BME280;11511;51.514;7.080;2023-07-13T09:25:49;101108.25;;;24.31;100.00
22688;BME280;11511;51.514;7.080;2023-07-13T09:28:28;101100.22;;;24.61;100.00
22688;BME280;11511;51.514;7.080;2023-07-13T09:31:05;101099.50;;;24.39;100.00
22688;BME280;11511;51.514;7.080;2023-07-13T09:33:31;101102.31;;;25.48;99.11
22688;BME280;11511;51.514;7.080;2023-07-13T09:35:58;101110.22;;;25.11;98.51
22688;BME280;11511;51.514;7.080;2023-07-13T09:38:26;101102.09;;;25.70;96.82
22688;BME280;11511;51.514;7.080;2023-07-13T09:43:24;101106.53;;;24.91;99.82
22688;BME280;11511;51.514;7.080;2023-07-13T09:45:50;101107.28;;;25.33;96.76
22688;BME280;11511;51.514;7.080;2023-07-13T09:48:17;101112.25;;;26.81;90.25
22688;BME280;11511;51.514;7.080;2023-07-13T09:50:43;101116.16;;;25.64;95.96
22688;BME280;11511;51.514;7.080;2023-07-13T09:53:17;101116.69;;;26.16;93.04
22688;BME280;11511;51.514;7.080;2023-07-13T09:55:47;101112.78;;;25.22;96.54
22688;BME280;11511;51.514;7.080;2023-07-13T10:00:41;101109.44;;;23.85;100.00
22688;BME280;11511;51.514;7.080;2023-07-13T10:03:17;101125.84;;;24.86;96.90
22688;BME280;11511;51.514;7.080;2023-07-13T10:05:45;101120.91;;;25.51;98.45
22688;BME280;11511;51.514;7.080;2023-07-13T10:08:24;101125.13;;;27.79;85.16
22688;BME280;11511;51.514;7.080;2023-07-13T10:11:10;101118.06;;;29.57;78.06
22688;BME280;11511;51.514;7.080;2023-07-13T10:13:39;101131.31;;;26.42;87.64
22688;BME280;11511;51.514;7.080;2023-07-13T10:16:06;101136.78;;;24.94;93.04
22688;BME280;11511;51.514;7.080;2023-07-13T10:18:40;101126.19;;;24.72;95.38
22688;BME280;11511;51.514;7.080;2023-07-13T10:21:17;101130.44;;;23.71;99.74
22688;BME280;11511;51.514;7.080;2023-07-13T10:23:43;101141.16;;;22.83;100.00
22688;BME280;11511;51.514;7.080;2023-07-13T10:26:16;101144.78;;;22.59;100.00
22688;BME280;11511;51.514;7.080;2023-07-13T10:28:45;101141.72;;;22.42;100.00
22688;BME280;11511;51.514;7.080;2023-07-13T10:31:14;101138.47;;;23.05;100.00
22688;BME280;11511;51.514;7.080;2023-07-13T10:33:41;101121.53;;;26.22;96.22
22688;BME280;11511;51.514;7.080;2023-07-13T10:36:39;101132.53;;;25.32;95.37
22688;BME280;11511;51.514;7.080;2023-07-13T10:39:06;101123.72;;;24.59;96.91
22688;BME280;11511;51.514;7.080;2023-07-13T10:41:39;101128.72;;;24.22;98.56
22688;BME280;11511;51.514;7.080;2023-07-13T10:44:18;101122.88;;;23.53;100.00
22688;BME280;11511;51.514;7.080;2023-07-13T10:46:46;101128.09;;;23.98;100.00
22688;BME280;11511;51.514;7.080;2023-07-13T10:49:11;101141.00;;;23.29;100.00
22688;BME280;11511;51.514;7.080;2023-07-13T10:51:37;101140.66;;;23.11;100.00
22688;BME280;11511;51.514;7.080;2023-07-13T10:54:18;101142.25;;;23.14;100.00
22688;BME280;11511;51.514;7.080;2023-07-13T10:56:48;101132.97;;;23.18;100.00
22688;BME280;11511;51.514;7.080;2023-07-13T10:59:18;101139.75;;;22.44;100.00
22688;BME280;11511;51.514;7.080;2023-07-13T11:04:21;101135.38;;;22.43;100.00
22688;BME280;11511;51.514;7.080;2023-07-13T11:06:52;101130.31;;;24.25;100.00
22688;BME280;11511;51.514;7.080;2023-07-13T11:09:39;101135.03;;;27.15;89.91
22688;BME280;11511;51.514;7.080;2023-07-13T11:17:33;101131.34;;;27.16;87.91
22688;BME280;11511;51.514;7.080;2023-07-13T11:20:10;101134.00;;;27.71;82.91
22688;BME280;11511;51.514;7.080;2023-07-13T11:22:51;101131.97;;;28.26;78.69
22688;BME280;11511;51.514;7.080;2023-07-13T11:33:20;101130.41;;;26.61;83.90
22688;BME280;11511;51.514;7.080;2023-07-13T11:38:38;101126.91;;;26.88;78.70
22688;BME280;11511;51.514;7.080;2023-07-13T11:41:26;101112.91;;;27.75;76.71
22688;BME280;11511;51.514;7.080;2023-07-13T11:44:05;101122.09;;;27.19;78.88
22688;BME280;11511;51.514;7.080;2023-07-13T11:46:31;101122.47;;;28.48;73.30
22688;BME280;11511;51.514;7.080;2023-07-13T11:48:56;101114.50;;;29.07;72.07
22688;BME280;11511;51.514;7.080;2023-07-13T11:51:27;101126.00;;;28.41;70.13
22688;BME280;11511;51.514;7.080;2023-07-13T11:53:55;101118.16;;;28.89;69.58
22688;BME280;11511;51.514;7.080;2023-07-13T11:56:22;101106.25;;;30.32;66.42
22688;BME280;11511;51.514;7.080;2023-07-13T11:58:51;101113.56;;;29.24;67.55
22688;BME280;11511;51.514;7.080;2023-07-13T12:01:26;101110.13;;;29.72;65.48
22688;BME280;11511;51.514;7.080;2023-07-13T12:03:54;101122.53;;;28.82;64.36
22688;BME280;11511;51.514;7.080;2023-07-13T12:06:25;101114.00;;;29.45;64.13
22688;BME280;11511;51.514;7.080;2023-07-13T12:08:56;101107.34;;;30.78;60.92
22688;BME280;11511;51.514;7.080;2023-07-13T12:11:22;101101.09;;;30.53;58.07
22688;BME280;11511;51.514;7.080;2023-07-13T12:13:47;101105.22;;;29.76;57.34
22688;BME280;11511;51.514;7.080;2023-07-13T12:16:26;101109.13;;;30.14;56.55
22688;BME280;11511;51.514;7.080;2023-07-13T12:18:53;101116.19;;;28.04;58.38
22688;BME280;11511;51.514;7.080;2023-07-13T12:21:19;101117.72;;;27.53;60.83
22688;BME280;11511;51.514;7.080;2023-07-13T12:23:49;101105.50;;;27.59;60.13
22688;BME280;11511;51.514;7.080;2023-07-13T12:26:14;101099.94;;;28.22;58.66
22688;BME280;11511;51.514;7.080;2023-07-13T12:31:31;101100.97;;;27.05;62.65
22688;BME280;11511;51.514;7.080;2023-07-13T12:34:14;101100.72;;;27.96;62.33
22688;BME280;11511;51.514;7.080;2023-07-13T12:36:47;101096.44;;;27.86;61.35
22688;BME280;11511;51.514;7.080;2023-07-13T12:41:41;101101.34;;;27.10;63.47
22688;BME280;11511;51.514;7.080;2023-07-13T12:44:11;101093.09;;;27.74;62.64
22688;BME280;11511;51.514;7.080;2023-07-13T12:46:38;101085.50;;;29.07;59.22
22688;BME280;11511;51.514;7.080;2023-07-13T12:49:06;101086.44;;;28.56;58.98
22688;BME280;11511;51.514;7.080;2023-07-13T12:51:32;101092.41;;;27.72;63.32
22688;BME280;11511;51.514;7.080;2023-07-13T12:54:08;101098.75;;;26.44;62.63
22688;BME280;11511;51.514;7.080;2023-07-13T12:56:37;101092.84;;;25.82;64.15
22688;BME280;11511;51.514;7.080;2023-07-13T12:59:03;101106.06;;;25.85;66.76
22688;BME280;11511;51.514;7.080;2023-07-13T13:01:33;101101.59;;;25.26;69.64
22688;BME280;11511;51.514;7.080;2023-07-13T13:04:02;101106.81;;;25.18;70.11
22688;BME280;11511;51.514;7.080;2023-07-13T13:06:32;101117.25;;;24.72;73.12
22688;BME280;11511;51.514;7.080;2023-07-13T13:08:59;101115.25;;;24.43;75.53
22688;BME280;11511;51.514;7.080;2023-07-13T13:11:26;101133.78;;;24.37;78.18
22688;BME280;11511;51.514;7.080;2023-07-13T13:13:52;101142.81;;;23.40;84.64
22688;BME280;11511;51.514;7.080;2023-07-13T13:16:31;101163.59;;;23.26;84.13
22688;BME280;11511;51.514;7.080;2023-07-13T13:19:00;101162.53;;;23.07;89.71
22688;BME280;11511;51.514;7.080;2023-07-13T13:21:27;101170.38;;;22.41;100.00
22688;BME280;11511;51.514;7.080;2023-07-13T13:23:52;101174.38;;;21.77;100.00
22688;BME280;11511;51.514;7.080;2023-07-13T13:26:19;101183.88;;;21.57;100.00
22688;BME280;11511;51.514;7.080;2023-07-13T13:28:45;101189.59;;;21.76;100.00
22688;BME280;11511;51.514;7.080;2023-07-13T13:31:12;101195.44;;;21.21;100.00
22688;BME280;11511;51.514;7.080;2023-07-13T13:33:39;101186.44;;;20.84;100.00
22688;BME280;11511;51.514;7.080;2023-07-13T13:36:13;101183.56;;;20.74;100.00
22688;BME280;11511;51.514;7.080;2023-07-13T13:38:40;101187.88;;;20.77;100.00
22688;BME280;11511;51.514;7.080;2023-07-13T13:41:09;101188.47;;;20.80;100.00
22688;BME280;11511;51.514;7.080;2023-07-13T13:43:35;101182.16;;;20.81;100.00
22688;BME280;11511;51.514;7.080;2023-07-13T13:46:00;101184.09;;;20.79;100.00
22688;BME280;11511;51.514;7.080;2023-07-13T13:48:33;101182.28;;;20.92;100.00
22688;BME280;11511;51.514;7.080;2023-07-13T13:51:00;101173.38;;;21.05;100.00
22688;BME280;11511;51.514;7.080;2023-07-13T13:53:26;101169.50;;;21.21;100.00
22688;BME280;11511;51.514;7.080;2023-07-13T13:55:52;101175.22;;;21.53;100.00
22688;BME280;11511;51.514;7.080;2023-07-13T13:58:18;101163.06;;;21.84;100.00
22688;BME280;11511;51.514;7.080;2023-07-13T14:00:45;101174.47;;;21.99;100.00
22688;BME280;11511;51.514;7.080;2023-07-13T14:03:18;101177.47;;;22.53;100.00
22688;BME280;11511;51.514;7.080;2023-07-13T14:05:45;101168.13;;;22.70;100.00
22688;BME280;11511;51.514;7.080;2023-07-13T14:08:16;101170.44;;;23.42;100.00
22688;BME280;11511;51.514;7.080;2023-07-13T14:10:42;101181.31;;;23.29;100.00
22688;BME280;11511;51.514;7.080;2023-07-13T14:13:19;101174.34;;;23.26;100.00
22688;BME280;11511;51.514;7.080;2023-07-13T14:15:46;101177.38;;;22.66;100.00
22688;BME280;11511;51.514;7.080;2023-07-13T14:18:13;101180.91;;;22.20;100.00
22688;BME280;11511;51.514;7.080;2023-07-13T14:20:46;101178.50;;;22.28;100.00
22688;BME280;11511;51.514;7.080;2023-07-13T14:23:14;101171.53;;;22.26;100.00
22688;BME280;11511;51.514;7.080;2023-07-13T14:25:41;101179.84;;;21.75;100.00
22688;BME280;11511;51.514;7.080;2023-07-13T14:28:23;101182.19;;;21.56;100.00
22688;BME280;11511;51.514;7.080;2023-07-13T14:30:49;101176.88;;;22.61;100.00
22688;BME280;11511;51.514;7.080;2023-07-13T14:33:15;101188.44;;;22.97;100.00
22688;BME280;11511;51.514;7.080;2023-07-13T14:35:40;101190.38;;;23.06;100.00
22688;BME280;11511;51.514;7.080;2023-07-13T14:38:11;101190.72;;;23.35;100.00
22688;BME280;11511;51.514;7.080;2023-07-13T14:40:37;101193.50;;;23.67;100.00
22688;BME280;11511;51.514;7.080;2023-07-13T14:43:03;101189.66;;;23.80;100.00
22688;BME280;11511;51.514;7.080;2023-07-13T14:45:30;101183.25;;;24.04;100.00
22688;BME280;11511;51.514;7.080;2023-07-13T14:47:56;101183.88;;;23.96;100.00
22688;BME280;11511;51.514;7.080;2023-07-13T14:50:29;101175.81;;;23.53;100.00
22688;BME280;11511;51.514;7.080;2023-07-13T14:52:55;101181.78;;;23.56;100.00
22688;BME280;11511;51.514;7.080;2023-07-13T14:55:20;101170.44;;;23.30;100.00
22688;BME280;11511;51.514;7.080;2023-07-13T14:57:46;101176.94;;;23.06;100.00
22688;BME280;11511;51.514;7.080;2023-07-13T15:00:14;101167.00;;;22.73;100.00
22688;BME280;11511;51.514;7.080;2023-07-13T15:02:41;101169.22;;;23.35;100.00
22688;BME280;11511;51.514;7.080;2023-07-13T15:05:19;101159.38;;;23.78;100.00
22688;BME280;11511;51.514;7.080;2023-07-13T15:07:45;101167.72;;;23.64;100.00
22688;BME280;11511;51.514;7.080;2023-07-13T15:10:19;101165.66;;;24.00;100.00
22688;BME280;11511;51.514;7.080;2023-07-13T15:12:45;101159.56;;;24.18;100.00
22688;BME280;11511;51.514;7.080;2023-07-13T15:15:11;101157.50;;;24.11;100.00
22688;BME280;11511;51.514;7.080;2023-07-13T15:17:41;101156.09;;;23.75;100.00
22688;BME280;11511;51.514;7.080;2023-07-13T15:22:48;101157.88;;;23.20;100.00
22688;BME280;11511;51.514;7.080;2023-07-13T15:25:22;101166.06;;;22.85;100.00
22688;BME280;11511;51.514;7.080;2023-07-13T15:27:50;101166.16;;;22.61;100.00
22688;BME280;11511;51.514;7.080;2023-07-13T15:30:15;101165.06;;;22.63;100.00
22688;BME280;11511;51.514;7.080;2023-07-13T15:32:44;101165.53;;;22.57;100.00
22688;BME280;11511;51.514;7.080;2023-07-13T15:35:19;101168.00;;;22.25;100.00
22688;BME280;11511;51.514;7.080;2023-07-13T15:37:44;101169.31;;;22.20;100.00
22688;BME280;11511;51.514;7.080;2023-07-13T15:40:11;101163.00;;;21.97;100.00
22688;BME280;11511;51.514;7.080;2023-07-13T15:42:37;101179.72;;;21.53;100.00
22688;BME280;11511;51.514;7.080;2023-07-13T15:45:15;101198.78;;;20.74;100.00
22688;BME280;11511;51.514;7.080;2023-07-13T15:47:41;101227.69;;;20.69;100.00
22688;BME280;11511;51.514;7.080;2023-07-13T15:50:12;101273.25;;;19.45;100.00
22688;BME280;11511;51.514;7.080;2023-07-13T15:52:37;101272.16;;;18.77;100.00
22688;BME280;11511;51.514;7.080;2023-07-13T15:55:03;101278.75;;;18.85;100.00
22688;BME280;11511;51.514;7.080;2023-07-13T15:57:28;101271.34;;;18.60;100.00
22688;BME280;11511;51.514;7.080;2023-07-13T15:59:54;101274.16;;;18.87;100.00
22688;BME280;11511;51.514;7.080;2023-07-13T16:02:20;101265.78;;;18.79;100.00
22688;BME280;11511;51.514;7.080;2023-07-13T16:04:48;101251.84;;;18.88;100.00
22688;BME280;11511;51.514;7.080;2023-07-13T16:07:15;101254.63;;;18.73;100.00
22688;BME280;11511;51.514;7.080;2023-07-13T16:09:46;101254.56;;;18.58;100.00
22688;BME280;11511;51.514;7.080;2023-07-13T16:12:13;101251.66;;;18.47;100.00
22688;BME280;11511;51.514;7.080;2023-07-13T16:14:40;101250.22;;;18.42;100.00
22688;BME280;11511;51.514;7.080;2023-07-13T16:17:09;101262.38;;;18.32;100.00
22688;BME280;11511;51.514;7.080;2023-07-13T16:19:35;101263.44;;;18.43;100.00
22688;BME280;11511;51.514;7.080;2023-07-13T16:22:01;101269.81;;;18.41;100.00
22688;BME280;11511;51.514;7.080;2023-07-13T16:24:31;101265.19;;;18.44;100.00
22688;BME280;11511;51.514;7.080;2023-07-13T16:26:57;101273.91;;;18.32;100.00
22688;BME280;11511;51.514;7.080;2023-07-13T16:29:28;101271.38;;;18.45;100.00
22688;BME280;11511;51.514;7.080;2023-07-13T16:32:01;101279.09;;;18.49;100.00
22688;BME280;11511;51.514;7.080;2023-07-13T16:34:28;101278.50;;;18.44;100.00
22688;BME280;11511;51.514;7.080;2023-07-13T16:36:54;101284.72;;;18.45;100.00
22688;BME280;11511;51.514;7.080;2023-07-13T16:39:20;101280.31;;;18.44;100.00
22688;BME280;11511;51.514;7.080;2023-07-13T16:41:48;101281.34;;;18.57;100.00
22688;BME280;11511;51.514;7.080;2023-07-13T16:44:16;101272.97;;;18.63;100.00
22688;BME280;11511;51.514;7.080;2023-07-13T16:46:44;101274.50;;;18.67;100.00
22688;BME280;11511;51.514;7.080;2023-07-13T16:49:29;101256.09;;;18.63;100.00
22688;BME280;11511;51.514;7.080;2023-07-13T16:51:56;101261.81;;;18.86;100.00
22688;BME280;11511;51.514;7.080;2023-07-13T16:54:32;101267.31;;;18.98;100.00
22688;BME280;11511;51.514;7.080;2023-07-13T16:56:59;101265.69;;;18.81;100.00
22688;BME280;11511;51.514;7.080;2023-07-13T16:59:34;101271.13;;;18.93;100.00
22688;BME280;11511;51.514;7.080;2023-07-13T17:02:01;101266.16;;;18.87;100.00
22688;BME280;11511;51.514;7.080;2023-07-13T17:04:28;101261.88;;;18.85;100.00
22688;BME280;11511;51.514;7.080;2023-07-13T17:06:56;101264.66;;;18.83;100.00
22688;BME280;11511;51.514;7.080;2023-07-13T17:09:22;101268.28;;;18.82;100.00
22688;BME280;11511;51.514;7.080;2023-07-13T17:11:51;101263.69;;;18.84;100.00
22688;BME280;11511;51.514;7.080;2023-07-13T17:14:21;101258.63;;;18.80;100.00
22688;BME280;11511;51.514;7.080;2023-07-13T17:16:53;101253.78;;;18.86;100.00
22688;BME280;11511;51.514;7.080;2023-07-13T17:19:29;101256.75;;;18.96;100.00
22688;BME280;11511;51.514;7.080;2023-07-13T17:21:55;101261.50;;;18.91;100.00
22688;BME280;11511;51.514;7.080;2023-07-13T17:24:26;101259.31;;;18.83;100.00
22688;BME280;11511;51.514;7.080;2023-07-13T17:26:51;101261.03;;;18.84;100.00
22688;BME280;11511;51.514;7.080;2023-07-13T17:29:20;101264.16;;;18.91;100.00
22688;BME280;11511;51.514;7.080;2023-07-13T17:31:45;101264.94;;;18.93;100.00
22688;BME280;11511;51.514;7.080;2023-07-13T17:34:12;101264.16;;;18.91;100.00
22688;BME280;11511;51.514;7.080;2023-07-13T17:36:39;101272.69;;;18.68;100.00
22688;BME280;11511;51.514;7.080;2023-07-13T17:39:21;101270.97;;;18.67;100.00
22688;BME280;11511;51.514;7.080;2023-07-13T17:41:48;101266.59;;;18.66;100.00
22688;BME280;11511;51.514;7.080;2023-07-13T17:44:15;101262.66;;;18.57;100.00
22688;BME280;11511;51.514;7.080;2023-07-13T17:46:45;101254.41;;;18.46;100.00
22688;BME280;11511;51.514;7.080;2023-07-13T17:49:22;101265.94;;;18.46;100.00
22688;BME280;11511;51.514;7.080;2023-07-13T17:51:57;101259.03;;;18.28;100.00
22688;BME280;11511;51.514;7.080;2023-07-13T17:54:22;101261.41;;;18.33;100.00
22688;BME280;11511;51.514;7.080;2023-07-13T17:56:50;101268.06;;;18.25;100.00
22688;BME280;11511;51.514;7.080;2023-07-13T17:59:16;101258.75;;;18.33;100.00
22688;BME280;11511;51.514;7.080;2023-07-13T18:01:42;101262.84;;;18.38;100.00
22688;BME280;11511;51.514;7.080;2023-07-13T18:04:11;101260.97;;;18.40;100.00
22688;BME280;11511;51.514;7.080;2023-07-13T18:06:40;101266.13;;;18.43;100.00
22688;BME280;11511;51.514;7.080;2023-07-13T18:09:16;101264.81;;;18.50;100.00
22688;BME280;11511;51.514;7.080;2023-07-13T18:11:42;101250.78;;;18.47;100.00
22688;BME280;11511;51.514;7.080;2023-07-13T18:14:08;101252.19;;;18.38;100.00
22688;BME280;11511;51.514;7.080;2023-07-13T18:16:34;101262.00;;;18.38;100.00
22688;BME280;11511;51.514;7.080;2023-07-13T18:19:01;101264.72;;;18.22;100.00
22688;BME280;11511;51.514;7.080;2023-07-13T18:21:28;101266.00;;;18.15;100.00
22688;BME280;11511;51.514;7.080;2023-07-13T18:23:54;101272.16;;;18.01;100.00
22688;BME280;11511;51.514;7.080;2023-07-13T18:26:20;101259.94;;;17.97;100.00
22688;BME280;11511;51.514;7.080;2023-07-13T18:28:46;101269.91;;;17.93;100.00
22688;BME280;11511;51.514;7.080;2023-07-13T18:31:23;101279.19;;;17.86;100.00
22688;BME280;11511;51.514;7.080;2023-07-13T18:33:52;101275.75;;;17.84;100.00
22688;BME280;11511;51.514;7.080;2023-07-13T18:36:20;101278.09;;;17.75;100.00
22688;BME280;11511;51.514;7.080;2023-07-13T18:38:46;101288.38;;;17.65;100.00
22688;BME280;11511;51.514;7.080;2023-07-13T18:41:14;101284.13;;;17.61;100.00
22688;BME280;11511;51.514;7.080;2023-07-13T18:43:40;101283.75;;;17.51;100.00
22688;BME280;11511;51.514;7.080;2023-07-13T18:46:22;101292.44;;;17.39;100.00
22688;BME280;11511;51.514;7.080;2023-07-13T18:48:49;101281.94;;;17.36;100.00
22688;BME280;11511;51.514;7.080;2023-07-13T18:51:15;101286.75;;;17.30;100.00
22688;BME280;11511;51.514;7.080;2023-07-13T18:53:41;101294.28;;;17.21;100.00
22688;BME280;11511;51.514;7.080;2023-07-13T18:56:08;101288.50;;;17.13;100.00
22688;BME280;11511;51.514;7.080;2023-07-13T18:58:36;101291.72;;;17.03;100.00
22688;BME280;11511;51.514;7.080;2023-07-13T19:01:02;101300.22;;;16.94;100.00
22688;BME280;11511;51.514;7.080;2023-07-13T19:03:32;101305.06;;;16.85;100.00
22688;BME280;11511;51.514;7.080;2023-07-13T19:06:00;101305.53;;;16.76;100.00
22688;BME280;11511;51.514;7.080;2023-07-13T19:08:25;101314.06;;;16.66;100.00
22688;BME280;11511;51.514;7.080;2023-07-13T19:10:52;101310.81;;;16.59;100.00
22688;BME280;11511;51.514;7.080;2023-07-13T19:13:28;101310.47;;;16.48;100.00
22688;BME280;11511;51.514;7.080;2023-07-13T19:15:56;101318.94;;;16.39;100.00
22688;BME280;11511;51.514;7.080;2023-07-13T19:18:23;101320.47;;;16.25;100.00
22688;BME280;11511;51.514;7.080;2023-07-13T19:20:51;101324.28;;;16.20;100.00
22688;BME280;11511;51.514;7.080;2023-07-13T19:23:26;101319.09;;;16.17;100.00
22688;BME280;11511;51.514;7.080;2023-07-13T19:25:59;101336.16;;;16.13;100.00
22688;BME280;11511;51.514;7.080;2023-07-13T19:28:36;101328.63;;;16.04;100.00
22688;BME280;11511;51.514;7.080;2023-07-13T19:31:04;101339.59;;;15.96;100.00
22688;BME280;11511;51.514;7.080;2023-07-13T19:33:29;101340.88;;;15.87;100.00
22688;BME280;11511;51.514;7.080;2023-07-13T19:35:56;101342.19;;;15.79;100.00
22688;BME280;11511;51.514;7.080;2023-07-13T19:38:24;101345.91;;;15.75;100.00
22688;BME280;11511;51.514;7.080;2023-07-13T19:40:51;101343.63;;;15.67;100.00
22688;BME280;11511;51.514;7.080;2023-07-13T19:43:17;101350.06;;;15.62;100.00
22688;BME280;11511;51.514;7.080;2023-07-13T19:45:42;101342.44;;;15.54;100.00
22688;BME280;11511;51.514;7.080;2023-07-13T19:48:08;101342.78;;;15.46;100.00
22688;BME280;11511;51.514;7.080;2023-07-13T19:50:34;101348.34;;;15.40;100.00
22688;BME280;11511;51.514;7.080;2023-07-13T19:53:01;101361.88;;;15.34;100.00
22688;BME280;11511;51.514;7.080;2023-07-13T19:55:27;101364.31;;;15.20;100.00
22688;BME280;11511;51.514;7.080;2023-07-13T19:57:53;101361.84;;;15.15;100.00
22688;BME280;11511;51.514;7.080;2023-07-13T20:00:25;101354.75;;;15.16;100.00
22688;BME280;11511;51.514;7.080;2023-07-13T20:02:51;101376.91;;;15.15;100.00
22688;BME280;11511;51.514;7.080;2023-07-13T20:05:19;101376.09;;;15.13;100.00
22688;BME280;11511;51.514;7.080;2023-07-13T20:07:45;101382.34;;;15.12;100.00
22688;BME280;11511;51.514;7.080;2023-07-13T20:10:24;101390.38;;;15.10;100.00
22688;BME280;11511;51.514;7.080;2023-07-13T20:12:52;101392.94;;;15.12;100.00
22688;BME280;11511;51.514;7.080;2023-07-13T20:15:20;101390.91;;;15.18;100.00
22688;BME280;11511;51.514;7.080;2023-07-13T20:17:49;101395.22;;;15.21;100.00
22688;BME280;11511;51.514;7.080;2023-07-13T20:20:16;101401.47;;;15.20;100.00
22688;BME280;11511;51.514;7.080;2023-07-13T20:22:43;101397.94;;;15.19;100.00
22688;BME280;11511;51.514;7.080;2023-07-13T20:25:24;101396.09;;;15.21;100.00
22688;BME280;11511;51.514;7.080;2023-07-13T20:27:52;101403.06;;;15.24;100.00
22688;BME280;11511;51.514;7.080;2023-07-13T20:30:17;101396.03;;;15.23;100.00
22688;BME280;11511;51.514;7.080;2023-07-13T20:32:43;101401.19;;;15.26;100.00
22688;BME280;11511;51.514;7.080;2023-07-13T20:35:35;101409.09;;;15.28;100.00
22688;BME280;11511;51.514;7.080;2023-07-13T20:38:01;101403.50;;;15.34;100.00
22688;BME280;11511;51.514;7.080;2023-07-13T20:40:32;101390.09;;;15.37;100.00
22688;BME280;11511;51.514;7.080;2023-07-13T20:42:59;101391.81;;;15.38;100.00
22688;BME280;11511;51.514;7.080;2023-07-13T20:45:26;101396.94;;;15.42;100.00
22688;BME280;11511;51.514;7.080;2023-07-13T20:47:52;101394.94;;;15.47;100.00
22688;BME280;11511;51.514;7.080;2023-07-13T20:50:24;101391.28;;;15.50;100.00
22688;BME280;11511;51.514;7.080;2023-07-13T20:52:53;101399.19;;;15.51;100.00
22688;BME280;11511;51.514;7.080;2023-07-13T20:55:21;101391.22;;;15.51;100.00
22688;BME280;11511;51.514;7.080;2023-07-13T20:57:47;101392.03;;;15.53;100.00
22688;BME280;11511;51.514;7.080;2023-07-13T21:00:15;101388.44;;;15.54;100.00
22688;BME280;11511;51.514;7.080;2023-07-13T21:02:41;101390.22;;;15.54;100.00
22688;BME280;11511;51.514;7.080;2023-07-13T21:05:19;101397.47;;;15.50;100.00
22688;BME280;11511;51.514;7.080;2023-07-13T21:07:45;101402.72;;;15.52;100.00
22688;BME280;11511;51.514;7.080;2023-07-13T21:10:25;101396.72;;;15.47;100.00
22688;BME280;11511;51.514;7.080;2023-07-13T21:12:52;101397.72;;;15.44;100.00
22688;BME280;11511;51.514;7.080;2023-07-13T21:15:21;101390.81;;;15.40;100.00
22688;BME280;11511;51.514;7.080;2023-07-13T21:17:48;101390.09;;;15.37;100.00
22688;BME280;11511;51.514;7.080;2023-07-13T21:20:26;101393.91;;;15.31;100.00
22688;BME280;11511;51.514;7.080;2023-07-13T21:22:52;101394.16;;;15.25;100.00
22688;BME280;11511;51.514;7.080;2023-07-13T21:25:20;101396.81;;;15.25;100.00
22688;BME280;11511;51.514;7.080;2023-07-13T21:27:52;101393.38;;;15.23;100.00
22688;BME280;11511;51.514;7.080;2023-07-13T21:30:19;101389.84;;;15.22;100.00
22688;BME280;11511;51.514;7.080;2023-07-13T21:32:50;101390.91;;;15.18;100.00
22688;BME280;11511;51.514;7.080;2023-07-13T21:35:18;101387.44;;;15.16;100.00
22688;BME280;11511;51.514;7.080;2023-07-13T21:37:46;101385.91;;;15.11;100.00
22688;BME280;11511;51.514;7.080;2023-07-13T21:40:15;101396.47;;;15.12;100.00
22688;BME280;11511;51.514;7.080;2023-07-13T21:42:41;101390.56;;;15.06;100.00
22688;BME280;11511;51.514;7.080;2023-07-13T21:45:18;101398.81;;;15.00;100.00
22688;BME280;11511;51.514;7.080;2023-07-13T21:47:45;101398.00;;;14.98;100.00
22688;BME280;11511;51.514;7.080;2023-07-13T21:50:11;101391.91;;;14.96;100.00
22688;BME280;11511;51.514;7.080;2023-07-13T21:52:36;101392.28;;;14.86;100.00
22688;BME280;11511;51.514;7.080;2023-07-13T21:55:01;101390.66;;;14.82;100.00
22688;BME280;11511;51.514;7.080;2023-07-13T21:57:28;101386.28;;;14.81;100.00
22688;BME280;11511;51.514;7.080;2023-07-13T21:59:54;101392.56;;;14.79;100.00
22688;BME280;11511;51.514;7.080;2023-07-13T22:02:20;101392.00;;;14.72;100.00
22688;BME280;11511;51.514;7.080;2023-07-13T22:04:45;101393.03;;;14.68;100.00
22688;BME280;11511;51.514;7.080;2023-07-13T22:07:11;101393.09;;;14.67;100.00
22688;BME280;11511;51.514;7.080;2023-07-13T22:09:36;101391.63;;;14.60;100.00
22688;BME280;11511;51.514;7.080;2023-07-13T22:12:01;101390.81;;;14.57;100.00
22688;BME280;11511;51.514;7.080;2023-07-13T22:14:28;101392.66;;;14.55;100.00
22688;BME280;11511;51.514;7.080;2023-07-13T22:16:54;101398.88;;;14.54;100.00
22688;BME280;11511;51.514;7.080;2023-07-13T22:19:22;101398.94;;;14.53;100.00
22688;BME280;11511;51.514;7.080;2023-07-13T22:21:49;101402.59;;;14.50;100.00
22688;BME280;11511;51.514;7.080;2023-07-13T22:24:17;101397.50;;;14.46;100.00
22688;BME280;11511;51.514;7.080;2023-07-13T22:26:43;101402.09;;;14.41;100.00
22688;BME280;11511;51.514;7.080;2023-07-13T22:29:14;101398.84;;;14.33;100.00
22688;BME280;11511;51.514;7.080;2023-07-13T22:31:40;101405.25;;;14.27;100.00
22688;BME280;11511;51.514;7.080;2023-07-13T22:34:11;101390.34;;;14.24;100.00
22688;BME280;11511;51.514;7.080;2023-07-13T22:36:37;101388.56;;;14.25;100.00
22688;BME280;11511;51.514;7.080;2023-07-13T22:39:03;101391.34;;;14.22;100.00
22688;BME280;11511;51.514;7.080;2023-07-13T22:41:30;101391.69;;;14.13;100.00
22688;BME280;11511;51.514;7.080;2023-07-13T22:43:55;101390.09;;;14.09;100.00
22688;BME280;11511;51.514;7.080;2023-07-13T22:46:26;101391.13;;;14.05;100.00
22688;BME280;11511;51.514;7.080;2023-07-13T22:48:57;101394.75;;;14.02;100.00